sensor_id;sensor_type;location;lat;lon;timestamp;P1;durP1;ratioP1;P2;durP2;ratioP2
3939;SDS011;1984;48.312;9.244;2023-11-19T00:01:47;5.17;;;4.67;;
3939;SDS011;1984;48.312;9.244;2023-11-19T00:04:12;5.60;;;4.10;;
3939;SDS011;1984;48.312;9.244;2023-11-19T00:06:38;7.20;;;4.87;;
3939;SDS011;1984;48.312;9.244;2023-11-19T00:09:04;4.50;;;4.10;;
3939;SDS011;1984;48.312;9.244;2023-11-19T00:11:29;7.30;;;4.40;;
3939;SDS011;1984;48.312;9.244;2023-11-19T00:13:55;4.37;;;3.97;;
3939;SDS011;1984;48.312;9.244;2023-11-19T00:16:21;5.80;;;5.30;;
3939;SDS011;1984;48.312;9.244;2023-11-19T00:18:46;4.30;;;3.90;;
3939;SDS011;1984;48.312;9.244;2023-11-19T00:21:12;6.20;;;4.60;;
3939;SDS011;1984;48.312;9.244;2023-11-19T00:23:37;6.27;;;4.47;;
3939;SDS011;1984;48.312;9.244;2023-11-19T00:26:03;4.93;;;4.53;;
3939;SDS011;1984;48.312;9.244;2023-11-19T00:28:31;4.30;;;3.90;;
3939;SDS011;1984;48.312;9.244;2023-11-19T00:30:58;4.37;;;3.97;;
3939;SDS011;1984;48.312;9.244;2023-11-19T00:33:23;4.93;;;4.53;;
3939;SDS011;1984;48.312;9.244;2023-11-19T00:35:49;5.67;;;5.17;;
3939;SDS011;1984;48.312;9.244;2023-11-19T00:38:15;10.00;;;6.30;;
3939;SDS011;1984;48.312;9.244;2023-11-19T00:40:41;5.97;;;5.47;;
3939;SDS011;1984;48.312;9.244;2023-11-19T00:43:06;5.10;;;4.67;;
3939;SDS011;1984;48.312;9.244;2023-11-19T00:45:32;6.83;;;5.10;;
3939;SDS011;1984;48.312;9.244;2023-11-19T00:47:58;6.47;;;5.77;;
3939;SDS011;1984;48.312;9.244;2023-11-19T00:50:26;5.33;;;4.30;;
3939;SDS011;1984;48.312;9.244;2023-11-19T00:52:52;4.33;;;4.03;;
3939;SDS011;1984;48.312;9.244;2023-11-19T00:55:17;4.83;;;4.43;;
3939;SDS011;1984;48.312;9.244;2023-11-19T00:57:43;4.87;;;4.13;;
3939;SDS011;1984;48.312;9.244;2023-11-19T01:00:09;5.50;;;5.00;;
3939;SDS011;1984;48.312;9.244;2023-11-19T01:02:45;5.07;;;4.13;;
3939;SDS011;1984;48.312;9.244;2023-11-19T01:05:11;4.67;;;4.23;;
3939;SDS011;1984;48.312;9.244;2023-11-19T01:07:39;4.43;;;4.03;;
3939;SDS011;1984;48.312;9.244;2023-11-19T01:10:05;3.23;;;3.03;;
3939;SDS011;1984;48.312;9.244;2023-11-19T01:12:31;4.03;;;3.57;;
3939;SDS011;1984;48.312;9.244;2023-11-19T01:14:56;4.13;;;3.83;;
3939;SDS011;1984;48.312;9.244;2023-11-19T01:17:23;3.97;;;3.57;;
3939;SDS011;1984;48.312;9.244;2023-11-19T01:19:48;3.60;;;3.30;;
3939;SDS011;1984;48.312;9.244;2023-11-19T01:22:15;3.40;;;3.20;;
3939;SDS011;1984;48.312;9.244;2023-11-19T01:24:40;5.83;;;3.50;;
3939;SDS011;1984;48.312;9.244;2023-11-19T01:27:06;3.33;;;3.10;;
3939;SDS011;1984;48.312;9.244;2023-11-19T01:29:31;4.07;;;3.77;;
3939;SDS011;1984;48.312;9.244;2023-11-19T01:31:57;3.83;;;3.30;;
3939;SDS011;1984;48.312;9.244;2023-11-19T01:34:22;3.53;;;3.33;;
3939;SDS011;1984;48.312;9.244;2023-11-19T01:36:48;8.93;;;4.30;;
3939;SDS011;1984;48.312;9.244;2023-11-19T01:39:14;3.90;;;3.60;;
3939;SDS011;1984;48.312;9.244;2023-11-19T01:41:41;4.67;;;4.27;;
3939;SDS011;1984;48.312;9.244;2023-11-19T01:44:07;3.60;;;3.30;;
3939;SDS011;1984;48.312;9.244;2023-11-19T01:46:32;4.37;;;3.43;;
3939;SDS011;1984;48.312;9.244;2023-11-19T01:48:59;5.20;;;4.17;;
3939;SDS011;1984;48.312;9.244;2023-11-19T01:51:25;3.87;;;3.60;;
3939;SDS011;1984;48.312;9.244;2023-11-19T01:53:52;4.30;;;4.00;;
3939;SDS011;1984;48.312;9.244;2023-11-19T01:56:18;3.33;;;3.13;;
3939;SDS011;1984;48.312;9.244;2023-11-19T01:58:44;3.23;;;3.03;;
3939;SDS011;1984;48.312;9.244;2023-11-19T02:01:10;2.53;;;2.43;;
3939;SDS011;1984;48.312;9.244;2023-11-19T02:03:37;3.23;;;3.03;;
3939;SDS011;1984;48.312;9.244;2023-11-19T02:06:03;5.00;;;2.30;;
3939;SDS011;1984;48.312;9.244;2023-11-19T02:08:29;2.80;;;2.60;;
3939;SDS011;1984;48.312;9.244;2023-11-19T02:10:55;2.70;;;2.50;;
3939;SDS011;1984;48.312;9.244;2023-11-19T02:13:25;3.60;;;2.60;;
3939;SDS011;1984;48.312;9.244;2023-11-19T02:15:51;2.77;;;2.57;;
3939;SDS011;1984;48.312;9.244;2023-11-19T02:18:18;2.63;;;2.50;;
3939;SDS011;1984;48.312;9.244;2023-11-19T02:20:50;10.20;;;2.83;;
3939;SDS011;1984;48.312;9.244;2023-11-19T02:23:16;3.43;;;2.33;;
3939;SDS011;1984;48.312;9.244;2023-11-19T02:25:43;2.93;;;2.47;;
3939;SDS011;1984;48.312;9.244;2023-11-19T02:28:17;3.90;;;3.60;;
3939;SDS011;1984;48.312;9.244;2023-11-19T02:30:43;2.80;;;2.70;;
3939;SDS011;1984;48.312;9.244;2023-11-19T02:33:08;2.30;;;2.20;;
3939;SDS011;1984;48.312;9.244;2023-11-19T02:35:34;2.50;;;2.40;;
3939;SDS011;1984;48.312;9.244;2023-11-19T02:38:00;2.73;;;2.53;;
3939;SDS011;1984;48.312;9.244;2023-11-19T02:40:25;3.07;;;2.87;;
3939;SDS011;1984;48.312;9.244;2023-11-19T02:42:52;3.23;;;3.03;;
3939;SDS011;1984;48.312;9.244;2023-11-19T02:45:19;3.17;;;2.97;;
3939;SDS011;1984;48.312;9.244;2023-11-19T02:47:44;3.03;;;2.83;;
3939;SDS011;1984;48.312;9.244;2023-11-19T02:50:10;3.03;;;2.83;;
3939;SDS011;1984;48.312;9.244;2023-11-19T02:52:40;3.63;;;2.83;;
3939;SDS011;1984;48.312;9.244;2023-11-19T02:55:06;3.10;;;2.80;;
3939;SDS011;1984;48.312;9.244;2023-11-19T02:57:35;3.33;;;3.13;;
3939;SDS011;1984;48.312;9.244;2023-11-19T03:00:01;3.20;;;3.00;;
3939;SDS011;1984;48.312;9.244;2023-11-19T03:02:36;2.13;;;2.03;;
3939;SDS011;1984;48.312;9.244;2023-11-19T03:05:09;2.00;;;1.90;;
3939;SDS011;1984;48.312;9.244;2023-11-19T03:07:36;2.13;;;2.03;;
3939;SDS011;1984;48.312;9.244;2023-11-19T03:10:01;2.60;;;2.40;;
3939;SDS011;1984;48.312;9.244;2023-11-19T03:12:27;3.00;;;2.80;;
3939;SDS011;1984;48.312;9.244;2023-11-19T03:14:52;3.10;;;2.90;;
3939;SDS011;1984;48.312;9.244;2023-11-19T03:17:20;2.53;;;2.43;;
3939;SDS011;1984;48.312;9.244;2023-11-19T03:19:45;3.57;;;3.37;;
3939;SDS011;1984;48.312;9.244;2023-11-19T03:22:11;2.70;;;2.60;;
3939;SDS011;1984;48.312;9.244;2023-11-19T03:24:36;2.60;;;2.50;;
3939;SDS011;1984;48.312;9.244;2023-11-19T03:27:02;3.00;;;1.90;;
3939;SDS011;1984;48.312;9.244;2023-11-19T03:29:29;1.70;;;1.60;;
3939;SDS011;1984;48.312;9.244;2023-11-19T03:31:54;3.60;;;2.90;;
3939;SDS011;1984;48.312;9.244;2023-11-19T03:34:20;9.63;;;5.40;;
3939;SDS011;1984;48.312;9.244;2023-11-19T03:36:45;10.33;;;6.60;;
3939;SDS011;1984;48.312;9.244;2023-11-19T03:39:11;8.87;;;6.10;;
3939;SDS011;1984;48.312;9.244;2023-11-19T03:41:36;3.20;;;2.90;;
3939;SDS011;1984;48.312;9.244;2023-11-19T03:44:02;0.70;;;0.70;;
3939;SDS011;1984;48.312;9.244;2023-11-19T03:46:27;1.40;;;1.40;;
3939;SDS011;1984;48.312;9.244;2023-11-19T03:48:54;0.63;;;0.63;;
3939;SDS011;1984;48.312;9.244;2023-11-19T03:51:20;0.40;;;0.40;;
3939;SDS011;1984;48.312;9.244;2023-11-19T03:53:45;0.50;;;0.50;;
3939;SDS011;1984;48.312;9.244;2023-11-19T03:56:11;0.40;;;0.40;;
3939;SDS011;1984;48.312;9.244;2023-11-19T03:58:37;0.40;;;0.40;;
3939;SDS011;1984;48.312;9.244;2023-11-19T04:01:10;0.40;;;0.40;;
3939;SDS011;1984;48.312;9.244;2023-11-19T04:03:37;0.40;;;0.40;;
3939;SDS011;1984;48.312;9.244;2023-11-19T04:06:03;0.40;;;0.40;;
3939;SDS011;1984;48.312;9.244;2023-11-19T04:08:29;0.50;;;0.40;;
3939;SDS011;1984;48.312;9.244;2023-11-19T04:10:54;0.43;;;0.43;;
3939;SDS011;1984;48.312;9.244;2023-11-19T04:13:20;0.43;;;0.43;;
3939;SDS011;1984;48.312;9.244;2023-11-19T04:15:45;0.40;;;0.40;;
3939;SDS011;1984;48.312;9.244;2023-11-19T04:18:11;0.53;;;0.53;;
3939;SDS011;1984;48.312;9.244;2023-11-19T04:20:37;1.03;;;0.40;;
3939;SDS011;1984;48.312;9.244;2023-11-19T04:23:02;0.40;;;0.40;;
3939;SDS011;1984;48.312;9.244;2023-11-19T04:25:28;0.40;;;0.40;;
3939;SDS011;1984;48.312;9.244;2023-11-19T04:27:53;0.80;;;0.40;;
3939;SDS011;1984;48.312;9.244;2023-11-19T04:30:19;0.40;;;0.40;;
3939;SDS011;1984;48.312;9.244;2023-11-19T04:32:44;0.40;;;0.40;;
3939;SDS011;1984;48.312;9.244;2023-11-19T04:35:10;0.40;;;0.40;;
3939;SDS011;1984;48.312;9.244;2023-11-19T04:37:36;0.40;;;0.40;;
3939;SDS011;1984;48.312;9.244;2023-11-19T04:40:02;0.40;;;0.40;;
3939;SDS011;1984;48.312;9.244;2023-11-19T04:42:28;0.40;;;0.40;;
3939;SDS011;1984;48.312;9.244;2023-11-19T04:44:54;0.40;;;0.40;;
3939;SDS011;1984;48.312;9.244;2023-11-19T04:47:20;0.40;;;0.40;;
3939;SDS011;1984;48.312;9.244;2023-11-19T04:49:46;0.30;;;0.30;;
3939;SDS011;1984;48.312;9.244;2023-11-19T04:52:11;0.40;;;0.40;;
3939;SDS011;1984;48.312;9.244;2023-11-19T04:54:43;0.40;;;0.40;;
3939;SDS011;1984;48.312;9.244;2023-11-19T04:57:09;2.40;;;0.60;;
3939;SDS011;1984;48.312;9.244;2023-11-19T04:59:36;2.60;;;0.50;;
3939;SDS011;1984;48.312;9.244;2023-11-19T05:02:02;0.40;;;0.40;;
3939;SDS011;1984;48.312;9.244;2023-11-19T05:04:29;0.40;;;0.40;;
3939;SDS011;1984;48.312;9.244;2023-11-19T05:06:54;0.50;;;0.50;;
3939;SDS011;1984;48.312;9.244;2023-11-19T05:09:20;5.50;;;0.50;;
3939;SDS011;1984;48.312;9.244;2023-11-19T05:11:45;0.40;;;0.40;;
3939;SDS011;1984;48.312;9.244;2023-11-19T05:14:11;0.50;;;0.40;;
3939;SDS011;1984;48.312;9.244;2023-11-19T05:16:39;0.40;;;0.40;;
3939;SDS011;1984;48.312;9.244;2023-11-19T05:19:08;0.40;;;0.40;;
3939;SDS011;1984;48.312;9.244;2023-11-19T05:21:34;0.80;;;0.40;;
3939;SDS011;1984;48.312;9.244;2023-11-19T05:24:01;0.40;;;0.40;;
3939;SDS011;1984;48.312;9.244;2023-11-19T05:26:29;0.40;;;0.40;;
3939;SDS011;1984;48.312;9.244;2023-11-19T05:28:55;0.40;;;0.40;;
3939;SDS011;1984;48.312;9.244;2023-11-19T05:31:20;0.40;;;0.40;;
3939;SDS011;1984;48.312;9.244;2023-11-19T05:33:46;0.57;;;0.57;;
3939;SDS011;1984;48.312;9.244;2023-11-19T05:36:11;2.40;;;0.83;;
3939;SDS011;1984;48.312;9.244;2023-11-19T05:38:37;0.60;;;0.60;;
3939;SDS011;1984;48.312;9.244;2023-11-19T05:41:04;3.20;;;0.60;;
3939;SDS011;1984;48.312;9.244;2023-11-19T05:43:30;0.40;;;0.40;;
3939;SDS011;1984;48.312;9.244;2023-11-19T05:45:56;0.40;;;0.40;;
3939;SDS011;1984;48.312;9.244;2023-11-19T05:48:21;0.50;;;0.50;;
3939;SDS011;1984;48.312;9.244;2023-11-19T05:50:47;0.83;;;0.83;;
3939;SDS011;1984;48.312;9.244;2023-11-19T05:53:14;1.13;;;1.13;;
3939;SDS011;1984;48.312;9.244;2023-11-19T05:55:40;1.13;;;1.13;;
3939;SDS011;1984;48.312;9.244;2023-11-19T05:58:11;2.23;;;2.13;;
3939;SDS011;1984;48.312;9.244;2023-11-19T06:00:40;4.30;;;2.03;;
3939;SDS011;1984;48.312;9.244;2023-11-19T06:03:05;2.07;;;1.90;;
3939;SDS011;1984;48.312;9.244;2023-11-19T06:05:32;1.47;;;1.40;;
3939;SDS011;1984;48.312;9.244;2023-11-19T06:07:58;2.73;;;1.30;;
3939;SDS011;1984;48.312;9.244;2023-11-19T06:10:23;1.33;;;1.23;;
3939;SDS011;1984;48.312;9.244;2023-11-19T06:12:55;3.77;;;1.80;;
3939;SDS011;1984;48.312;9.244;2023-11-19T06:15:24;2.03;;;1.93;;
3939;SDS011;1984;48.312;9.244;2023-11-19T06:17:53;1.50;;;1.40;;
3939;SDS011;1984;48.312;9.244;2023-11-19T06:20:19;1.83;;;1.73;;
3939;SDS011;1984;48.312;9.244;2023-11-19T06:22:45;1.20;;;1.20;;
3939;SDS011;1984;48.312;9.244;2023-11-19T06:25:11;4.30;;;1.90;;
3939;SDS011;1984;48.312;9.244;2023-11-19T06:27:37;1.57;;;1.57;;
3939;SDS011;1984;48.312;9.244;2023-11-19T06:30:02;2.00;;;1.90;;
3939;SDS011;1984;48.312;9.244;2023-11-19T06:32:28;3.53;;;2.53;;
3939;SDS011;1984;48.312;9.244;2023-11-19T06:34:54;3.23;;;3.03;;
3939;SDS011;1984;48.312;9.244;2023-11-19T06:37:20;3.20;;;3.00;;
3939;SDS011;1984;48.312;9.244;2023-11-19T06:39:45;2.70;;;2.50;;
3939;SDS011;1984;48.312;9.244;2023-11-19T06:42:11;2.00;;;1.90;;
3939;SDS011;1984;48.312;9.244;2023-11-19T06:44:36;2.10;;;2.00;;
3939;SDS011;1984;48.312;9.244;2023-11-19T06:47:02;1.97;;;1.87;;
3939;SDS011;1984;48.312;9.244;2023-11-19T06:49:27;2.10;;;2.00;;
3939;SDS011;1984;48.312;9.244;2023-11-19T06:51:53;2.30;;;2.10;;
3939;SDS011;1984;48.312;9.244;2023-11-19T06:54:18;2.37;;;2.17;;
3939;SDS011;1984;48.312;9.244;2023-11-19T06:56:44;2.23;;;2.03;;
3939;SDS011;1984;48.312;9.244;2023-11-19T06:59:10;2.20;;;2.10;;
3939;SDS011;1984;48.312;9.244;2023-11-19T07:01:35;3.27;;;3.00;;
3939;SDS011;1984;48.312;9.244;2023-11-19T07:04:02;2.60;;;2.50;;
3939;SDS011;1984;48.312;9.244;2023-11-19T07:06:34;2.30;;;2.20;;
3939;SDS011;1984;48.312;9.244;2023-11-19T07:09:01;2.87;;;2.60;;
3939;SDS011;1984;48.312;9.244;2023-11-19T07:11:34;3.00;;;2.80;;
3939;SDS011;1984;48.312;9.244;2023-11-19T07:14:01;2.10;;;2.00;;
3939;SDS011;1984;48.312;9.244;2023-11-19T07:16:27;5.23;;;4.03;;
3939;SDS011;1984;48.312;9.244;2023-11-19T07:18:53;2.83;;;2.63;;
3939;SDS011;1984;48.312;9.244;2023-11-19T07:21:19;3.40;;;3.20;;
3939;SDS011;1984;48.312;9.244;2023-11-19T07:23:44;3.37;;;3.17;;
3939;SDS011;1984;48.312;9.244;2023-11-19T07:26:11;3.20;;;2.93;;
3939;SDS011;1984;48.312;9.244;2023-11-19T07:28:37;3.70;;;3.40;;
3939;SDS011;1984;48.312;9.244;2023-11-19T07:31:04;3.23;;;2.97;;
3939;SDS011;1984;48.312;9.244;2023-11-19T07:33:32;5.00;;;3.03;;
3939;SDS011;1984;48.312;9.244;2023-11-19T07:35:58;3.80;;;3.40;;
3939;SDS011;1984;48.312;9.244;2023-11-19T07:38:24;6.93;;;3.33;;
3939;SDS011;1984;48.312;9.244;2023-11-19T07:40:49;3.47;;;3.27;;
3939;SDS011;1984;48.312;9.244;2023-11-19T07:43:15;2.97;;;2.77;;
3939;SDS011;1984;48.312;9.244;2023-11-19T07:45:41;6.13;;;3.30;;
3939;SDS011;1984;48.312;9.244;2023-11-19T07:48:08;2.80;;;2.70;;
3939;SDS011;1984;48.312;9.244;2023-11-19T07:50:35;2.57;;;2.37;;
3939;SDS011;1984;48.312;9.244;2023-11-19T07:53:00;2.97;;;2.77;;
3939;SDS011;1984;48.312;9.244;2023-11-19T07:55:27;2.80;;;2.60;;
3939;SDS011;1984;48.312;9.244;2023-11-19T07:57:52;3.33;;;2.70;;
3939;SDS011;1984;48.312;9.244;2023-11-19T08:00:18;3.00;;;2.67;;
3939;SDS011;1984;48.312;9.244;2023-11-19T08:02:44;3.33;;;3.07;;
3939;SDS011;1984;48.312;9.244;2023-11-19T08:05:10;4.13;;;3.83;;
3939;SDS011;1984;48.312;9.244;2023-11-19T08:07:36;8.70;;;4.47;;
3939;SDS011;1984;48.312;9.244;2023-11-19T08:10:02;4.90;;;4.40;;
3939;SDS011;1984;48.312;9.244;2023-11-19T08:12:30;7.27;;;5.40;;
3939;SDS011;1984;48.312;9.244;2023-11-19T08:14:56;5.27;;;4.77;;
3939;SDS011;1984;48.312;9.244;2023-11-19T08:17:23;6.70;;;5.00;;
3939;SDS011;1984;48.312;9.244;2023-11-19T08:19:49;4.90;;;4.40;;
3939;SDS011;1984;48.312;9.244;2023-11-19T08:22:14;3.93;;;3.70;;
3939;SDS011;1984;48.312;9.244;2023-11-19T08:24:41;3.20;;;3.00;;
3939;SDS011;1984;48.312;9.244;2023-11-19T08:27:08;2.80;;;2.60;;
3939;SDS011;1984;48.312;9.244;2023-11-19T08:29:33;3.13;;;2.93;;
3939;SDS011;1984;48.312;9.244;2023-11-19T08:32:00;3.10;;;2.70;;
3939;SDS011;1984;48.312;9.244;2023-11-19T08:34:27;3.20;;;3.00;;
3939;SDS011;1984;48.312;9.244;2023-11-19T08:36:52;3.70;;;3.40;;
3939;SDS011;1984;48.312;9.244;2023-11-19T08:39:18;6.87;;;5.33;;
3939;SDS011;1984;48.312;9.244;2023-11-19T08:41:46;6.80;;;6.10;;
3939;SDS011;1984;48.312;9.244;2023-11-19T08:44:12;4.87;;;4.47;;
3939;SDS011;1984;48.312;9.244;2023-11-19T08:46:37;3.97;;;3.67;;
3939;SDS011;1984;48.312;9.244;2023-11-19T08:49:04;4.47;;;4.07;;
3939;SDS011;1984;48.312;9.244;2023-11-19T08:51:30;5.17;;;3.93;;
3939;SDS011;1984;48.312;9.244;2023-11-19T08:53:56;3.37;;;3.17;;
3939;SDS011;1984;48.312;9.244;2023-11-19T08:56:22;3.40;;;3.20;;
3939;SDS011;1984;48.312;9.244;2023-11-19T08:58:48;5.50;;;4.00;;
3939;SDS011;1984;48.312;9.244;2023-11-19T09:01:13;4.03;;;3.73;;
3939;SDS011;1984;48.312;9.244;2023-11-19T09:03:39;3.90;;;3.57;;
3939;SDS011;1984;48.312;9.244;2023-11-19T09:06:05;4.07;;;3.67;;
3939;SDS011;1984;48.312;9.244;2023-11-19T09:08:31;3.63;;;3.30;;
3939;SDS011;1984;48.312;9.244;2023-11-19T09:10:57;3.93;;;3.63;;
3939;SDS011;1984;48.312;9.244;2023-11-19T09:13:23;6.23;;;3.47;;
3939;SDS011;1984;48.312;9.244;2023-11-19T09:15:48;5.17;;;3.37;;
3939;SDS011;1984;48.312;9.244;2023-11-19T09:18:14;4.40;;;3.00;;
3939;SDS011;1984;48.312;9.244;2023-11-19T09:20:39;3.03;;;2.83;;
3939;SDS011;1984;48.312;9.244;2023-11-19T09:23:05;3.77;;;3.50;;
3939;SDS011;1984;48.312;9.244;2023-11-19T09:25:33;3.83;;;3.53;;
3939;SDS011;1984;48.312;9.244;2023-11-19T09:27:59;4.03;;;3.00;;
3939;SDS011;1984;48.312;9.244;2023-11-19T09:30:25;3.60;;;3.30;;
3939;SDS011;1984;48.312;9.244;2023-11-19T09:32:50;3.10;;;2.90;;
3939;SDS011;1984;48.312;9.244;2023-11-19T09:35:16;2.93;;;2.73;;
3939;SDS011;1984;48.312;9.244;2023-11-19T09:37:42;4.97;;;2.90;;
3939;SDS011;1984;48.312;9.244;2023-11-19T09:40:08;3.37;;;3.07;;
3939;SDS011;1984;48.312;9.244;2023-11-19T09:42:38;4.00;;;3.60;;
3939;SDS011;1984;48.312;9.244;2023-11-19T09:45:10;3.43;;;3.23;;
3939;SDS011;1984;48.312;9.244;2023-11-19T09:47:39;3.90;;;3.60;;
3939;SDS011;1984;48.312;9.244;2023-11-19T09:50:05;3.97;;;3.40;;
3939;SDS011;1984;48.312;9.244;2023-11-19T09:52:32;4.33;;;3.83;;
3939;SDS011;1984;48.312;9.244;2023-11-19T09:54:57;3.93;;;3.53;;
3939;SDS011;1984;48.312;9.244;2023-11-19T09:57:23;3.13;;;2.80;;
3939;SDS011;1984;48.312;9.244;2023-11-19T09:59:48;3.00;;;2.80;;
3939;SDS011;1984;48.312;9.244;2023-11-19T10:02:16;2.73;;;2.53;;
3939;SDS011;1984;48.312;9.244;2023-11-19T10:04:43;5.23;;;3.17;;
3939;SDS011;1984;48.312;9.244;2023-11-19T10:07:12;3.43;;;2.87;;
3939;SDS011;1984;48.312;9.244;2023-11-19T10:09:45;1.87;;;1.77;;
3939;SDS011;1984;48.312;9.244;2023-11-19T10:12:33;4.17;;;2.20;;
3939;SDS011;1984;48.312;9.244;2023-11-19T10:14:59;2.63;;;2.43;;
3939;SDS011;1984;48.312;9.244;2023-11-19T10:17:34;2.40;;;2.30;;
3939;SDS011;1984;48.312;9.244;2023-11-19T10:20:00;7.17;;;4.60;;
3939;SDS011;1984;48.312;9.244;2023-11-19T10:22:27;2.93;;;2.57;;
3939;SDS011;1984;48.312;9.244;2023-11-19T10:24:53;2.53;;;2.30;;
3939;SDS011;1984;48.312;9.244;2023-11-19T10:27:19;2.80;;;2.00;;
3939;SDS011;1984;48.312;9.244;2023-11-19T10:29:47;2.57;;;1.93;;
3939;SDS011;1984;48.312;9.244;2023-11-19T10:32:13;1.90;;;1.80;;
3939;SDS011;1984;48.312;9.244;2023-11-19T10:34:42;2.70;;;2.17;;
3939;SDS011;1984;48.312;9.244;2023-11-19T10:37:08;2.50;;;2.30;;
3939;SDS011;1984;48.312;9.244;2023-11-19T10:39:52;1.80;;;1.70;;
3939;SDS011;1984;48.312;9.244;2023-11-19T10:42:19;1.57;;;1.47;;
3939;SDS011;1984;48.312;9.244;2023-11-19T10:44:45;2.27;;;2.07;;
3939;SDS011;1984;48.312;9.244;2023-11-19T10:47:11;2.53;;;2.33;;
3939;SDS011;1984;48.312;9.244;2023-11-19T10:49:38;4.60;;;3.43;;
3939;SDS011;1984;48.312;9.244;2023-11-19T10:52:04;4.67;;;3.13;;
3939;SDS011;1984;48.312;9.244;2023-11-19T10:54:30;2.30;;;2.20;;
3939;SDS011;1984;48.312;9.244;2023-11-19T10:57:01;2.37;;;2.17;;
3939;SDS011;1984;48.312;9.244;2023-11-19T10:59:28;2.33;;;2.13;;
3939;SDS011;1984;48.312;9.244;2023-11-19T11:01:57;2.90;;;1.97;;
3939;SDS011;1984;48.312;9.244;2023-11-19T11:04:25;4.40;;;2.20;;
3939;SDS011;1984;48.312;9.244;2023-11-19T11:06:56;2.73;;;2.23;;
3939;SDS011;1984;48.312;9.244;2023-11-19T11:09:25;3.30;;;2.90;;
3939;SDS011;1984;48.312;9.244;2023-11-19T11:11:52;2.00;;;1.90;;
3939;SDS011;1984;48.312;9.244;2023-11-19T11:14:20;3.07;;;2.87;;
3939;SDS011;1984;48.312;9.244;2023-11-19T11:16:47;2.83;;;2.63;;
3939;SDS011;1984;48.312;9.244;2023-11-19T11:19:15;3.40;;;3.10;;
3939;SDS011;1984;48.312;9.244;2023-11-19T11:21:42;3.37;;;3.07;;
3939;SDS011;1984;48.312;9.244;2023-11-19T11:33:15;1.30;;;1.20;;
3939;SDS011;1984;48.312;9.244;2023-11-19T11:38:46;0.97;;;0.60;;
3939;SDS011;1984;48.312;9.244;2023-11-19T11:41:17;1.13;;;1.03;;
3939;SDS011;1984;48.312;9.244;2023-11-19T11:43:45;1.73;;;0.70;;
3939;SDS011;1984;48.312;9.244;2023-11-19T11:48:57;0.73;;;0.73;;
3939;SDS011;1984;48.312;9.244;2023-11-19T11:51:57;0.90;;;0.90;;
3939;SDS011;1984;48.312;9.244;2023-11-19T11:59:48;0.97;;;0.80;;
3939;SDS011;1984;48.312;9.244;2023-11-19T12:02:15;0.93;;;0.87;;
3939;SDS011;1984;48.312;9.244;2023-11-19T12:04:50;1.63;;;1.30;;
3939;SDS011;1984;48.312;9.244;2023-11-19T12:07:23;1.37;;;1.27;;
3939;SDS011;1984;48.312;9.244;2023-11-19T12:09:53;1.00;;;0.80;;
3939;SDS011;1984;48.312;9.244;2023-11-19T12:12:32;1.17;;;1.07;;
3939;SDS011;1984;48.312;9.244;2023-11-19T12:20:02;1.17;;;1.07;;
3939;SDS011;1984;48.312;9.244;2023-11-19T12:22:31;0.60;;;0.60;;
3939;SDS011;1984;48.312;9.244;2023-11-19T12:24:56;0.97;;;0.63;;
3939;SDS011;1984;48.312;9.244;2023-11-19T12:27:23;0.93;;;0.83;;
3939;SDS011;1984;48.312;9.244;2023-11-19T12:29:48;1.17;;;0.60;;
3939;SDS011;1984;48.312;9.244;2023-11-19T12:32:14;0.60;;;0.60;;
3939;SDS011;1984;48.312;9.244;2023-11-19T12:34:40;0.90;;;0.90;;
3939;SDS011;1984;48.312;9.244;2023-11-19T12:37:06;1.10;;;1.10;;
3939;SDS011;1984;48.312;9.244;2023-11-19T12:39:34;2.37;;;1.43;;
3939;SDS011;1984;48.312;9.244;2023-11-19T12:42:00;3.60;;;1.30;;
3939;SDS011;1984;48.312;9.244;2023-11-19T12:44:26;4.83;;;1.10;;
3939;SDS011;1984;48.312;9.244;2023-11-19T12:47:07;2.80;;;1.23;;
3939;SDS011;1984;48.312;9.244;2023-11-19T12:49:33;2.10;;;0.93;;
3939;SDS011;1984;48.312;9.244;2023-11-19T12:51:59;0.60;;;0.60;;
3939;SDS011;1984;48.312;9.244;2023-11-19T12:54:31;1.33;;;0.90;;
3939;SDS011;1984;48.312;9.244;2023-11-19T12:57:00;2.27;;;0.90;;
3939;SDS011;1984;48.312;9.244;2023-11-19T12:59:27;0.60;;;0.60;;
3939;SDS011;1984;48.312;9.244;2023-11-19T13:01:56;0.80;;;0.80;;
3939;SDS011;1984;48.312;9.244;2023-11-19T13:04:28;1.13;;;0.60;;
3939;SDS011;1984;48.312;9.244;2023-11-19T13:06:58;0.60;;;0.60;;
3939;SDS011;1984;48.312;9.244;2023-11-19T13:09:24;0.60;;;0.60;;
3939;SDS011;1984;48.312;9.244;2023-11-19T13:11:53;1.07;;;0.70;;
3939;SDS011;1984;48.312;9.244;2023-11-19T13:14:20;3.17;;;0.50;;
3939;SDS011;1984;48.312;9.244;2023-11-19T13:16:46;0.70;;;0.70;;
3939;SDS011;1984;48.312;9.244;2023-11-19T13:19:12;0.50;;;0.50;;
3939;SDS011;1984;48.312;9.244;2023-11-19T13:21:38;1.10;;;0.50;;
3939;SDS011;1984;48.312;9.244;2023-11-19T13:24:05;1.40;;;0.70;;
3939;SDS011;1984;48.312;9.244;2023-11-19T13:26:31;1.20;;;0.57;;
3939;SDS011;1984;48.312;9.244;2023-11-19T13:28:57;0.73;;;0.73;;
3939;SDS011;1984;48.312;9.244;2023-11-19T13:31:22;0.60;;;0.60;;
3939;SDS011;1984;48.312;9.244;2023-11-19T13:33:48;2.20;;;0.70;;
3939;SDS011;1984;48.312;9.244;2023-11-19T13:36:13;0.57;;;0.57;;
3939;SDS011;1984;48.312;9.244;2023-11-19T13:38:39;1.03;;;0.57;;
3939;SDS011;1984;48.312;9.244;2023-11-19T13:41:07;0.60;;;0.60;;
3939;SDS011;1984;48.312;9.244;2023-11-19T13:43:35;0.70;;;0.60;;
3939;SDS011;1984;48.312;9.244;2023-11-19T13:46:00;0.50;;;0.50;;
3939;SDS011;1984;48.312;9.244;2023-11-19T13:48:26;2.23;;;0.60;;
3939;SDS011;1984;48.312;9.244;2023-11-19T13:50:53;0.53;;;0.53;;
3939;SDS011;1984;48.312;9.244;2023-11-19T13:53:20;2.73;;;0.60;;
3939;SDS011;1984;48.312;9.244;2023-11-19T13:55:45;0.50;;;0.50;;
3939;SDS011;1984;48.312;9.244;2023-11-19T13:58:12;4.53;;;0.73;;
3939;SDS011;1984;48.312;9.244;2023-11-19T14:00:38;1.23;;;0.60;;
3939;SDS011;1984;48.312;9.244;2023-11-19T14:03:04;0.43;;;0.43;;
3939;SDS011;1984;48.312;9.244;2023-11-19T14:05:30;0.60;;;0.60;;
3939;SDS011;1984;48.312;9.244;2023-11-19T14:07:56;1.07;;;0.87;;
3939;SDS011;1984;48.312;9.244;2023-11-19T14:10:22;2.60;;;0.60;;
3939;SDS011;1984;48.312;9.244;2023-11-19T14:12:48;1.00;;;0.60;;
3939;SDS011;1984;48.312;9.244;2023-11-19T14:15:15;1.50;;;0.70;;
3939;SDS011;1984;48.312;9.244;2023-11-19T14:17:43;0.87;;;0.60;;
3939;SDS011;1984;48.312;9.244;2023-11-19T14:20:09;3.43;;;2.23;;
3939;SDS011;1984;48.312;9.244;2023-11-19T14:22:41;0.50;;;0.50;;
3939;SDS011;1984;48.312;9.244;2023-11-19T14:25:11;0.50;;;0.50;;
3939;SDS011;1984;48.312;9.244;2023-11-19T14:27:37;0.50;;;0.50;;
3939;SDS011;1984;48.312;9.244;2023-11-19T14:30:06;0.70;;;0.60;;
3939;SDS011;1984;48.312;9.244;2023-11-19T14:32:33;0.50;;;0.50;;
3939;SDS011;1984;48.312;9.244;2023-11-19T14:35:00;0.77;;;0.60;;
3939;SDS011;1984;48.312;9.244;2023-11-19T14:37:25;0.60;;;0.53;;
3939;SDS011;1984;48.312;9.244;2023-11-19T14:39:51;0.70;;;0.70;;
3939;SDS011;1984;48.312;9.244;2023-11-19T14:42:17;4.53;;;1.07;;
3939;SDS011;1984;48.312;9.244;2023-11-19T14:44:42;1.10;;;1.00;;
3939;SDS011;1984;48.312;9.244;2023-11-19T14:47:08;0.60;;;0.60;;
3939;SDS011;1984;48.312;9.244;2023-11-19T14:49:37;0.80;;;0.57;;
3939;SDS011;1984;48.312;9.244;2023-11-19T14:52:06;0.60;;;0.50;;
3939;SDS011;1984;48.312;9.244;2023-11-19T14:54:31;0.80;;;0.60;;
3939;SDS011;1984;48.312;9.244;2023-11-19T14:56:57;0.60;;;0.50;;
3939;SDS011;1984;48.312;9.244;2023-11-19T14:59:24;1.20;;;1.00;;
3939;SDS011;1984;48.312;9.244;2023-11-19T15:01:50;1.10;;;0.80;;
3939;SDS011;1984;48.312;9.244;2023-11-19T15:04:15;1.17;;;0.53;;
3939;SDS011;1984;48.312;9.244;2023-11-19T15:06:41;0.57;;;0.57;;
3939;SDS011;1984;48.312;9.244;2023-11-19T15:09:07;2.80;;;0.70;;
3939;SDS011;1984;48.312;9.244;2023-11-19T15:11:32;0.97;;;0.70;;
3939;SDS011;1984;48.312;9.244;2023-11-19T15:13:58;2.50;;;1.97;;
3939;SDS011;1984;48.312;9.244;2023-11-19T15:16:25;2.00;;;1.30;;
3939;SDS011;1984;48.312;9.244;2023-11-19T15:18:56;0.80;;;0.70;;
3939;SDS011;1984;48.312;9.244;2023-11-19T15:21:24;5.40;;;0.70;;
3939;SDS011;1984;48.312;9.244;2023-11-19T15:23:51;7.03;;;0.70;;
3939;SDS011;1984;48.312;9.244;2023-11-19T15:26:17;3.90;;;1.23;;
3939;SDS011;1984;48.312;9.244;2023-11-19T15:28:42;0.60;;;0.60;;
3939;SDS011;1984;48.312;9.244;2023-11-19T15:31:08;2.00;;;0.70;;
3939;SDS011;1984;48.312;9.244;2023-11-19T15:33:35;0.80;;;0.80;;
3939;SDS011;1984;48.312;9.244;2023-11-19T15:36:00;0.60;;;0.60;;
3939;SDS011;1984;48.312;9.244;2023-11-19T15:38:27;5.77;;;3.63;;